sensor_id;sensor_type;location;lat;lon;timestamp;P1;durP1;ratioP1;P2;durP2;ratioP2
37771;SDS011;23610;59.380;24.642;2023-05-07T00:00:44;65.63;;;26.83;;
37771;SDS011;23610;59.380;24.642;2023-05-07T00:05:47;60.10;;;26.50;;
37771;SDS011;23610;59.380;24.642;2023-05-07T00:10:49;80.57;;;32.10;;
37771;SDS011;23610;59.380;24.642;2023-05-07T00:15:52;82.97;;;33.33;;
37771;SDS011;23610;59.380;24.642;2023-05-07T00:20:54;78.63;;;30.52;;
37771;SDS011;23610;59.380;24.642;2023-05-07T00:25:57;54.20;;;22.90;;
37771;SDS011;23610;59.380;24.642;2023-05-07T00:31:00;43.83;;;21.27;;
37771;SDS011;23610;59.380;24.642;2023-05-07T00:36:02;40.17;;;20.85;;
37771;SDS011;23610;59.380;24.642;2023-05-07T00:41:05;41.67;;;19.45;;
37771;SDS011;23610;59.380;24.642;2023-05-07T00:46:08;32.67;;;17.38;;
37771;SDS011;23610;59.380;24.642;2023-05-07T00:51:11;31.70;;;15.52;;
37771;SDS011;23610;59.380;24.642;2023-05-07T00:56:14;31.23;;;16.02;;
37771;SDS011;23610;59.380;24.642;2023-05-07T01:01:17;29.27;;;16.90;;
37771;SDS011;23610;59.380;24.642;2023-05-07T01:06:20;30.80;;;15.38;;
37771;SDS011;23610;59.380;24.642;2023-05-07T01:11:24;31.73;;;15.95;;
37771;SDS011;23610;59.380;24.642;2023-05-07T01:16:27;28.80;;;13.90;;
37771;SDS011;23610;59.380;24.642;2023-05-07T01:21:31;27.55;;;14.50;;
37771;SDS011;23610;59.380;24.642;2023-05-07T01:26:38;26.52;;;12.95;;
37771;SDS011;23610;59.380;24.642;2023-05-07T01:31:42;27.30;;;12.88;;
37771;SDS011;23610;59.380;24.642;2023-05-07T01:36:45;24.70;;;13.30;;
37771;SDS011;23610;59.380;24.642;2023-05-07T01:41:49;25.70;;;13.27;;
37771;SDS011;23610;59.380;24.642;2023-05-07T01:46:52;21.33;;;11.60;;
37771;SDS011;23610;59.380;24.642;2023-05-07T01:51:56;29.15;;;11.60;;
37771;SDS011;23610;59.380;24.642;2023-05-07T01:56:59;17.58;;;10.40;;
37771;SDS011;23610;59.380;24.642;2023-05-07T02:02:02;18.77;;;9.30;;
37771;SDS011;23610;59.380;24.642;2023-05-07T02:07:06;17.45;;;10.57;;
37771;SDS011;23610;59.380;24.642;2023-05-07T02:12:09;18.38;;;9.93;;
37771;SDS011;23610;59.380;24.642;2023-05-07T02:17:11;18.05;;;8.50;;
37771;SDS011;23610;59.380;24.642;2023-05-07T02:22:14;12.30;;;8.23;;
37771;SDS011;23610;59.380;24.642;2023-05-07T02:27:17;11.40;;;7.57;;
37771;SDS011;23610;59.380;24.642;2023-05-07T02:32:19;15.63;;;8.40;;
37771;SDS011;23610;59.380;24.642;2023-05-07T02:37:22;11.65;;;7.72;;
37771;SDS011;23610;59.380;24.642;2023-05-07T02:42:25;15.70;;;8.65;;
37771;SDS011;23610;59.380;24.642;2023-05-07T02:47:28;13.30;;;7.80;;
37771;SDS011;23610;59.380;24.642;2023-05-07T02:52:32;19.13;;;7.27;;
37771;SDS011;23610;59.380;24.642;2023-05-07T02:57:34;14.63;;;7.72;;
37771;SDS011;23610;59.380;24.642;2023-05-07T03:02:38;9.90;;;6.20;;
37771;SDS011;23610;59.380;24.642;2023-05-07T03:07:41;12.55;;;7.25;;
37771;SDS011;23610;59.380;24.642;2023-05-07T03:12:47;10.68;;;7.10;;
37771;SDS011;23610;59.380;24.642;2023-05-07T03:17:51;10.18;;;7.15;;
37771;SDS011;23610;59.380;24.642;2023-05-07T03:22:54;12.63;;;6.38;;
37771;SDS011;23610;59.380;24.642;2023-05-07T03:27:56;12.13;;;6.65;;
37771;SDS011;23610;59.380;24.642;2023-05-07T03:33:07;10.18;;;5.80;;
37771;SDS011;23610;59.380;24.642;2023-05-07T03:38:11;8.40;;;6.25;;
37771;SDS011;23610;59.380;24.642;2023-05-07T03:43:13;9.75;;;6.13;;
37771;SDS011;23610;59.380;24.642;2023-05-07T03:48:21;8.57;;;5.53;;
37771;SDS011;23610;59.380;24.642;2023-05-07T03:53:25;10.07;;;5.72;;
37771;SDS011;23610;59.380;24.642;2023-05-07T03:58:28;9.35;;;4.78;;
37771;SDS011;23610;59.380;24.642;2023-05-07T04:03:34;7.65;;;4.82;;
37771;SDS011;23610;59.380;24.642;2023-05-07T04:08:37;6.82;;;5.22;;
37771;SDS011;23610;59.380;24.642;2023-05-07T04:13:41;9.18;;;5.07;;
37771;SDS011;23610;59.380;24.642;2023-05-07T04:18:44;9.15;;;5.65;;
37771;SDS011;23610;59.380;24.642;2023-05-07T04:23:49;7.30;;;4.78;;
37771;SDS011;23610;59.380;24.642;2023-05-07T04:28:51;6.10;;;3.42;;
37771;SDS011;23610;59.380;24.642;2023-05-07T04:33:54;6.25;;;3.03;;
37771;SDS011;23610;59.380;24.642;2023-05-07T04:38:57;4.28;;;2.60;;
37771;SDS011;23610;59.380;24.642;2023-05-07T04:44:00;2.20;;;1.80;;
37771;SDS011;23610;59.380;24.642;2023-05-07T04:49:07;4.97;;;3.03;;
37771;SDS011;23610;59.380;24.642;2023-05-07T04:54:10;4.95;;;2.78;;
37771;SDS011;23610;59.380;24.642;2023-05-07T04:59:13;4.20;;;2.70;;
37771;SDS011;23610;59.380;24.642;2023-05-07T05:04:15;2.67;;;2.33;;
37771;SDS011;23610;59.380;24.642;2023-05-07T05:09:18;2.30;;;2.10;;
37771;SDS011;23610;59.380;24.642;2023-05-07T05:14:21;2.88;;;1.98;;
37771;SDS011;23610;59.380;24.642;2023-05-07T05:19:24;2.65;;;1.85;;
37771;SDS011;23610;59.380;24.642;2023-05-07T05:24:27;1.08;;;1.00;;
37771;SDS011;23610;59.380;24.642;2023-05-07T05:29:30;1.77;;;1.30;;
37771;SDS011;23610;59.380;24.642;2023-05-07T05:34:33;4.07;;;1.10;;
37771;SDS011;23610;59.380;24.642;2023-05-07T05:44:43;0.93;;;0.93;;
37771;SDS011;23610;59.380;24.642;2023-05-07T05:49:48;0.80;;;0.80;;
37771;SDS011;23610;59.380;24.642;2023-05-07T05:54:50;1.90;;;1.20;;
37771;SDS011;23610;59.380;24.642;2023-05-07T05:59:54;1.85;;;1.25;;
37771;SDS011;23610;59.380;24.642;2023-05-07T06:04:57;1.60;;;0.93;;
37771;SDS011;23610;59.380;24.642;2023-05-07T06:10:00;3.28;;;1.20;;
37771;SDS011;23610;59.380;24.642;2023-05-07T06:15:06;4.03;;;1.30;;
37771;SDS011;23610;59.380;24.642;2023-05-07T06:20:09;0.77;;;0.77;;
37771;SDS011;23610;59.380;24.642;2023-05-07T06:25:14;2.28;;;1.05;;
37771;SDS011;23610;59.380;24.642;2023-05-07T06:30:17;5.00;;;0.95;;
37771;SDS011;23610;59.380;24.642;2023-05-07T06:35:20;1.30;;;0.75;;
37771;SDS011;23610;59.380;24.642;2023-05-07T06:40:23;2.08;;;0.95;;
37771;SDS011;23610;59.380;24.642;2023-05-07T06:45:25;0.82;;;0.80;;
37771;SDS011;23610;59.380;24.642;2023-05-07T06:50:29;0.82;;;0.80;;
37771;SDS011;23610;59.380;24.642;2023-05-07T06:55:32;1.95;;;0.93;;
37771;SDS011;23610;59.380;24.642;2023-05-07T07:00:35;1.30;;;1.02;;
37771;SDS011;23610;59.380;24.642;2023-05-07T07:05:38;0.80;;;0.80;;
37771;SDS011;23610;59.380;24.642;2023-05-07T07:10:42;1.70;;;1.15;;
37771;SDS011;23610;59.380;24.642;2023-05-07T07:15:45;1.95;;;1.42;;
37771;SDS011;23610;59.380;24.642;2023-05-07T07:20:48;1.65;;;0.93;;
37771;SDS011;23610;59.380;24.642;2023-05-07T07:25:51;1.85;;;0.80;;
37771;SDS011;23610;59.380;24.642;2023-05-07T07:30:54;2.22;;;1.45;;
37771;SDS011;23610;59.380;24.642;2023-05-07T07:35:57;1.05;;;0.98;;
37771;SDS011;23610;59.380;24.642;2023-05-07T07:41:00;1.40;;;1.30;;
37771;SDS011;23610;59.380;24.642;2023-05-07T07:46:04;2.63;;;0.93;;
37771;SDS011;23610;59.380;24.642;2023-05-07T07:51:07;0.75;;;0.75;;
37771;SDS011;23610;59.380;24.642;2023-05-07T07:56:09;1.70;;;1.00;;
37771;SDS011;23610;59.380;24.642;2023-05-07T08:01:12;1.40;;;1.10;;
37771;SDS011;23610;59.380;24.642;2023-05-07T08:06:16;1.25;;;1.15;;
37771;SDS011;23610;59.380;24.642;2023-05-07T08:11:20;1.02;;;0.93;;
37771;SDS011;23610;59.380;24.642;2023-05-07T08:16:24;2.33;;;1.08;;
37771;SDS011;23610;59.380;24.642;2023-05-07T08:21:27;1.20;;;0.90;;
37771;SDS011;23610;59.380;24.642;2023-05-07T08:26:30;1.33;;;1.13;;
37771;SDS011;23610;59.380;24.642;2023-05-07T08:31:32;1.75;;;1.33;;
37771;SDS011;23610;59.380;24.642;2023-05-07T08:36:35;6.05;;;0.90;;
37771;SDS011;23610;59.380;24.642;2023-05-07T08:41:38;2.22;;;0.95;;
37771;SDS011;23610;59.380;24.642;2023-05-07T08:46:41;0.85;;;0.82;;
37771;SDS011;23610;59.380;24.642;2023-05-07T08:51:50;0.82;;;0.73;;
37771;SDS011;23610;59.380;24.642;2023-05-07T08:56:54;1.00;;;0.82;;
37771;SDS011;23610;59.380;24.642;2023-05-07T09:01:57;3.45;;;1.08;;
37771;SDS011;23610;59.380;24.642;2023-05-07T09:07:00;1.70;;;1.00;;
37771;SDS011;23610;59.380;24.642;2023-05-07T09:12:10;2.78;;;0.93;;
37771;SDS011;23610;59.380;24.642;2023-05-07T09:17:13;1.02;;;0.90;;
37771;SDS011;23610;59.380;24.642;2023-05-07T09:22:17;0.80;;;0.80;;
37771;SDS011;23610;59.380;24.642;2023-05-07T09:27:34;2.22;;;0.80;;
37771;SDS011;23610;59.380;24.642;2023-05-07T09:32:38;3.17;;;1.02;;
37771;SDS011;23610;59.380;24.642;2023-05-07T09:37:46;2.30;;;0.70;;
37771;SDS011;23610;59.380;24.642;2023-05-07T09:42:49;2.35;;;0.90;;
37771;SDS011;23610;59.380;24.642;2023-05-07T09:47:54;5.50;;;1.20;;
37771;SDS011;23610;59.380;24.642;2023-05-07T09:52:59;0.80;;;0.80;;
37771;SDS011;23610;59.380;24.642;2023-05-07T09:58:02;1.45;;;0.90;;
37771;SDS011;23610;59.380;24.642;2023-05-07T10:08:18;1.02;;;0.80;;
37771;SDS011;23610;59.380;24.642;2023-05-07T10:13:24;7.47;;;1.25;;
37771;SDS011;23610;59.380;24.642;2023-05-07T10:18:30;5.03;;;0.88;;
37771;SDS011;23610;59.380;24.642;2023-05-07T10:23:41;1.23;;;0.90;;
37771;SDS011;23610;59.380;24.642;2023-05-07T10:28:58;0.88;;;0.60;;
37771;SDS011;23610;59.380;24.642;2023-05-07T10:34:12;1.05;;;0.95;;
37771;SDS011;23610;59.380;24.642;2023-05-07T10:39:21;1.75;;;0.85;;
37771;SDS011;23610;59.380;24.642;2023-05-07T10:44:28;1.00;;;0.90;;
37771;SDS011;23610;59.380;24.642;2023-05-07T11:00:41;1.83;;;1.08;;
37771;SDS011;23610;59.380;24.642;2023-05-07T11:06:10;4.43;;;1.23;;
37771;SDS011;23610;59.380;24.642;2023-05-07T11:11:20;3.20;;;1.23;;
37771;SDS011;23610;59.380;24.642;2023-05-07T11:17:12;1.83;;;0.73;;
37771;SDS011;23610;59.380;24.642;2023-05-07T11:27:47;1.38;;;1.10;;
37771;SDS011;23610;59.380;24.642;2023-05-07T11:32:49;2.65;;;0.95;;
37771;SDS011;23610;59.380;24.642;2023-05-07T11:37:57;2.83;;;0.85;;
37771;SDS011;23610;59.380;24.642;2023-05-07T11:43:10;3.72;;;1.42;;
37771;SDS011;23610;59.380;24.642;2023-05-07T11:48:13;1.30;;;0.80;;
37771;SDS011;23610;59.380;24.642;2023-05-07T11:53:17;2.17;;;0.70;;
37771;SDS011;23610;59.380;24.642;2023-05-07T11:58:22;2.63;;;1.88;;
37771;SDS011;23610;59.380;24.642;2023-05-07T12:03:27;1.85;;;1.05;;
37771;SDS011;23610;59.380;24.642;2023-05-07T12:08:32;0.93;;;0.80;;
37771;SDS011;23610;59.380;24.642;2023-05-07T12:13:37;1.13;;;0.90;;
37771;SDS011;23610;59.380;24.642;2023-05-07T12:18:40;3.05;;;1.20;;
37771;SDS011;23610;59.380;24.642;2023-05-07T12:23:43;4.68;;;1.52;;
37771;SDS011;23610;59.380;24.642;2023-05-07T12:28:46;0.82;;;0.70;;
37771;SDS011;23610;59.380;24.642;2023-05-07T12:33:49;2.45;;;1.75;;
37771;SDS011;23610;59.380;24.642;2023-05-07T12:38:51;3.05;;;1.13;;
37771;SDS011;23610;59.380;24.642;2023-05-07T12:43:56;2.37;;;1.17;;
37771;SDS011;23610;59.380;24.642;2023-05-07T12:48:59;1.58;;;1.00;;
37771;SDS011;23610;59.380;24.642;2023-05-07T12:54:02;1.42;;;1.15;;
37771;SDS011;23610;59.380;24.642;2023-05-07T12:59:04;5.78;;;2.58;;
37771;SDS011;23610;59.380;24.642;2023-05-07T13:04:07;1.17;;;1.00;;
37771;SDS011;23610;59.380;24.642;2023-05-07T13:09:09;4.30;;;1.40;;
37771;SDS011;23610;59.380;24.642;2023-05-07T13:14:12;2.17;;;1.75;;
37771;SDS011;23610;59.380;24.642;2023-05-07T13:19:15;2.72;;;1.33;;
37771;SDS011;23610;59.380;24.642;2023-05-07T13:24:18;2.45;;;1.40;;
37771;SDS011;23610;59.380;24.642;2023-05-07T13:29:21;2.70;;;1.80;;
37771;SDS011;23610;59.380;24.642;2023-05-07T13:34:29;2.53;;;1.63;;
37771;SDS011;23610;59.380;24.642;2023-05-07T13:39:32;1.17;;;1.00;;
37771;SDS011;23610;59.380;24.642;2023-05-07T13:44:35;0.88;;;0.60;;
37771;SDS011;23610;59.380;24.642;2023-05-07T13:49:37;1.15;;;1.05;;
37771;SDS011;23610;59.380;24.642;2023-05-07T13:54:40;18.80;;;15.45;;
37771;SDS011;23610;59.380;24.642;2023-05-07T13:59:42;6.32;;;5.72;;
37771;SDS011;23610;59.380;24.642;2023-05-07T14:04:45;1.58;;;1.40;;
37771;SDS011;23610;59.380;24.642;2023-05-07T14:09:47;12.25;;;9.93;;
37771;SDS011;23610;59.380;24.642;2023-05-07T14:14:50;4.82;;;0.90;;
37771;SDS011;23610;59.380;24.642;2023-05-07T14:19:53;1.67;;;0.80;;
37771;SDS011;23610;59.380;24.642;2023-05-07T14:24:56;0.82;;;0.82;;
37771;SDS011;23610;59.380;24.642;2023-05-07T14:30:07;1.02;;;0.80;;
37771;SDS011;23610;59.380;24.642;2023-05-07T14:35:10;0.68;;;0.68;;
37771;SDS011;23610;59.380;24.642;2023-05-07T14:40:13;2.08;;;0.80;;
37771;SDS011;23610;59.380;24.642;2023-05-07T14:45:16;1.10;;;1.00;;
37771;SDS011;23610;59.380;24.642;2023-05-07T14:50:19;1.92;;;0.90;;
37771;SDS011;23610;59.380;24.642;2023-05-07T14:55:21;1.63;;;1.20;;
37771;SDS011;23610;59.380;24.642;2023-05-07T15:00:24;0.85;;;0.73;;
37771;SDS011;23610;59.380;24.642;2023-05-07T15:05:27;1.58;;;0.60;;
37771;SDS011;23610;59.380;24.642;2023-05-07T15:10:29;1.90;;;0.82;;
37771;SDS011;23610;59.380;24.642;2023-05-07T15:15:32;4.45;;;1.58;;
37771;SDS011;23610;59.380;24.642;2023-05-07T15:20:36;4.25;;;2.15;;
37771;SDS011;23610;59.380;24.642;2023-05-07T15:25:39;3.63;;;2.20;;
37771;SDS011;23610;59.380;24.642;2023-05-07T15:30:41;1.58;;;1.00;;
37771;SDS011;23610;59.380;24.642;2023-05-07T15:35:44;1.15;;;1.05;;
37771;SDS011;23610;59.380;24.642;2023-05-07T15:40:47;1.73;;;1.10;;
37771;SDS011;23610;59.380;24.642;2023-05-07T15:45:51;1.85;;;1.35;;
37771;SDS011;23610;59.380;24.642;2023-05-07T15:50:54;3.58;;;1.65;;
37771;SDS011;23610;59.380;24.642;2023-05-07T15:55:57;16.98;;;7.10;;
37771;SDS011;23610;59.380;24.642;2023-05-07T16:00:59;1.38;;;1.15;;
37771;SDS011;23610;59.380;24.642;2023-05-07T16:06:02;3.13;;;1.30;;
37771;SDS011;23610;59.380;24.642;2023-05-07T16:11:06;3.05;;;1.85;;
37771;SDS011;23610;59.380;24.642;2023-05-07T16:16:08;1.52;;;1.10;;
37771;SDS011;23610;59.380;24.642;2023-05-07T16:21:11;2.40;;;1.55;;
37771;SDS011;23610;59.380;24.642;2023-05-07T16:26:14;1.33;;;1.23;;
37771;SDS011;23610;59.380;24.642;2023-05-07T16:31:17;2.33;;;0.80;;
37771;SDS011;23610;59.380;24.642;2023-05-07T16:36:19;32.83;;;16.00;;
37771;SDS011;23610;59.380;24.642;2023-05-07T16:41:22;18.88;;;10.15;;
37771;SDS011;23610;59.380;24.642;2023-05-07T16:46:25;29.20;;;20.38;;
37771;SDS011;23610;59.380;24.642;2023-05-07T16:51:28;2.92;;;2.58;;
37771;SDS011;23610;59.380;24.642;2023-05-07T16:56:30;1.00;;;0.80;;
37771;SDS011;23610;59.380;24.642;2023-05-07T17:01:33;0.65;;;0.65;;
37771;SDS011;23610;59.380;24.642;2023-05-07T17:06:37;4.28;;;1.20;;
37771;SDS011;23610;59.380;24.642;2023-05-07T17:11:40;3.20;;;1.70;;
37771;SDS011;23610;59.380;24.642;2023-05-07T17:16:43;15.82;;;1.98;;
37771;SDS011;23610;59.380;24.642;2023-05-07T17:21:46;3.75;;;1.75;;
37771;SDS011;23610;59.380;24.642;2023-05-07T17:26:49;30.30;;;12.50;;
37771;SDS011;23610;59.380;24.642;2023-05-07T17:31:51;3.92;;;2.28;;
37771;SDS011;23610;59.380;24.642;2023-05-07T17:36:54;3.45;;;1.88;;
37771;SDS011;23610;59.380;24.642;2023-05-07T17:41:57;1.63;;;1.50;;
37771;SDS011;23610;59.380;24.642;2023-05-07T17:47:00;2.47;;;2.17;;
37771;SDS011;23610;59.380;24.642;2023-05-07T17:52:04;6.40;;;5.35;;
37771;SDS011;23610;59.380;24.642;2023-05-07T17:57:06;8.00;;;4.85;;
37771;SDS011;23610;59.380;24.642;2023-05-07T18:02:09;6.13;;;4.20;;
37771;SDS011;23610;59.380;24.642;2023-05-07T18:07:12;7.40;;;5.03;;
37771;SDS011;23610;59.380;24.642;2023-05-07T18:12:14;5.80;;;3.85;;
37771;SDS011;23610;59.380;24.642;2023-05-07T18:17:17;3.65;;;2.97;;
37771;SDS011;23610;59.380;24.642;2023-05-07T18:22:24;3.30;;;3.00;;
37771;SDS011;23610;59.380;24.642;2023-05-07T18:27:27;3.70;;;2.80;;
37771;SDS011;23610;59.380;24.642;2023-05-07T18:32:29;3.97;;;1.88;;
37771;SDS011;23610;59.380;24.642;2023-05-07T18:37:32;4.35;;;2.00;;
37771;SDS011;23610;59.380;24.642;2023-05-07T18:42:35;3.28;;;1.90;;
37771;SDS011;23610;59.380;24.642;2023-05-07T18:47:37;8.07;;;2.00;;
37771;SDS011;23610;59.380;24.642;2023-05-07T18:52:40;2.35;;;1.90;;
37771;SDS011;23610;59.380;24.642;2023-05-07T18:57:42;3.03;;;2.05;;
37771;SDS011;23610;59.380;24.642;2023-05-07T19:02:45;3.00;;;1.30;;
37771;SDS011;23610;59.380;24.642;2023-05-07T19:07:47;5.63;;;1.92;;
37771;SDS011;23610;59.380;24.642;2023-05-07T19:12:51;2.10;;;1.60;;
37771;SDS011;23610;59.380;24.642;2023-05-07T19:17:56;3.90;;;1.92;;
37771;SDS011;23610;59.380;24.642;2023-05-07T19:22:58;6.20;;;3.47;;
37771;SDS011;23610;59.380;24.642;2023-05-07T19:28:01;38.88;;;13.85;;
37771;SDS011;23610;59.380;24.642;2023-05-07T19:33:03;183.73;;;69.50;;
37771;SDS011;23610;59.380;24.642;2023-05-07T19:38:06;439.10;;;179.98;;
37771;SDS011;23610;59.380;24.642;2023-05-07T19:43:09;367.50;;;142.80;;
37771;SDS011;23610;59.380;24.642;2023-05-07T19:48:11;160.13;;;66.15;;
37771;SDS011;23610;59.380;24.642;2023-05-07T19:53:15;164.30;;;65.40;;
37771;SDS011;23610;59.380;24.642;2023-05-07T19:58:17;154.80;;;62.88;;
37771;SDS011;23610;59.380;24.642;2023-05-07T20:03:19;85.97;;;38.35;;
37771;SDS011;23610;59.380;24.642;2023-05-07T20:08:22;77.15;;;32.92;;
37771;SDS011;23610;59.380;24.642;2023-05-07T20:13:25;70.20;;;31.40;;
37771;SDS011;23610;59.380;24.642;2023-05-07T20:18:28;64.80;;;29.17;;
37771;SDS011;23610;59.380;24.642;2023-05-07T20:23:31;102.05;;;43.60;;
37771;SDS011;23610;59.380;24.642;2023-05-07T20:28:34;107.80;;;48.15;;
37771;SDS011;23610;59.380;24.642;2023-05-07T20:33:36;98.32;;;45.58;;
37771;SDS011;23610;59.380;24.642;2023-05-07T20:38:41;103.32;;;42.95;;
37771;SDS011;23610;59.380;24.642;2023-05-07T20:43:44;87.10;;;39.53;;
37771;SDS011;23610;59.380;24.642;2023-05-07T20:48:47;85.15;;;40.97;;
37771;SDS011;23610;59.380;24.642;2023-05-07T20:53:51;87.18;;;37.53;;
37771;SDS011;23610;59.380;24.642;2023-05-07T20:58:53;88.35;;;41.30;;
37771;SDS011;23610;59.380;24.642;2023-05-07T21:03:56;85.10;;;41.13;;
37771;SDS011;23610;59.380;24.642;2023-05-07T21:08:58;79.57;;;41.10;;
37771;SDS011;23610;59.380;24.642;2023-05-07T21:14:01;83.20;;;40.35;;
37771;SDS011;23610;59.380;24.642;2023-05-07T21:19:04;119.00;;;56.95;;
37771;SDS011;23610;59.380;24.642;2023-05-07T21:24:07;67.53;;;33.42;;
37771;SDS011;23610;59.380;24.642;2023-05-07T21:29:10;53.50;;;25.98;;
37771;SDS011;23610;59.380;24.642;2023-05-07T21:34:12;48.10;;;25.35;;
37771;SDS011;23610;59.380;24.642;2023-05-07T21:39:15;49.63;;;22.92;;
37771;SDS011;23610;59.380;24.642;2023-05-07T21:44:17;37.63;;;16.80;;
37771;SDS011;23610;59.380;24.642;2023-05-07T21:49:20;34.40;;;16.08;;
37771;SDS011;23610;59.380;24.642;2023-05-07T21:54:22;45.35;;;17.95;;
37771;SDS011;23610;59.380;24.642;2023-05-07T21:59:25;34.25;;;15.40;;
37771;SDS011;23610;59.380;24.642;2023-05-07T22:04:27;34.33;;;16.77;;
37771;SDS011;23610;59.380;24.642;2023-05-07T22:09:30;42.67;;;17.98;;
37771;SDS011;23610;59.380;24.642;2023-05-07T22:14:40;34.80;;;14.95;;
37771;SDS011;23610;59.380;24.642;2023-05-07T22:19:43;28.33;;;12.13;;
37771;SDS011;23610;59.380;24.642;2023-05-07T22:24:45;28.05;;;11.20;;
37771;SDS011;23610;59.380;24.642;2023-05-07T22:29:48;18.15;;;9.20;;
37771;SDS011;23610;59.380;24.642;2023-05-07T22:34:50;21.17;;;8.68;;
37771;SDS011;23610;59.380;24.642;2023-05-07T22:39:53;14.13;;;7.60;;
37771;SDS011;23610;59.380;24.642;2023-05-07T22:44:55;51.10;;;15.88;;
37771;SDS011;23610;59.380;24.642;2023-05-07T22:49:58;214.48;;;59.90;;
37771;SDS011;23610;59.380;24.642;2023-05-07T22:55:01;220.40;;;66.35;;
37771;SDS011;23610;59.380;24.642;2023-05-07T23:00:04;152.70;;;44.25;;
37771;SDS011;23610;59.380;24.642;2023-05-07T23:05:07;102.18;;;33.63;;
37771;SDS011;23610;59.380;24.642;2023-05-07T23:10:10;268.40;;;72.95;;
37771;SDS011;23610;59.380;24.642;2023-05-07T23:15:13;276.92;;;68.57;;
37771;SDS011;23610;59.380;24.642;2023-05-07T23:20:17;220.07;;;55.83;;
37771;SDS011;23610;59.380;24.642;2023-05-07T23:25:20;255.80;;;62.33;;
37771;SDS011;23610;59.380;24.642;2023-05-07T23:30:22;226.45;;;61.30;;
37771;SDS011;23610;59.380;24.642;2023-05-07T23:35:25;104.93;;;34.28;;
37771;SDS011;23610;59.380;24.642;2023-05-07T23:46:41;21.70;;;9.55;;
37771;SDS011;23610;59.380;24.642;2023-05-07T23:52:17;10.95;;;4.40;;
37771;SDS011;23610;59.380;24.642;2023-05-07T23:57:20;5.25;;;3.40;;
